To NAV CANADA Home Page Login to a new session Search on AWWS site Feedback and Comments Disclaimer Vers la page française équivalente Tips FAQ What's new on the site To the Forecasts and Observations / NOTAM section To "File a Flight Plan" website Publications and other links Update of the User's profile FIC Telephone Numbers My Weather Data Folder Route Weather Data Regional Weather Data Local Weather Data To the Forecasts and Observations / NOTAM section
Request Generated 09/25/2016 at 13:57:19 UTC . Weather information available at that time is displayed.

METAR/TAF

BURWASH/YT    (show WxCam)

METAR CYDB 251300Z 13004KT 30SM FEW160 FEW180 03/M01 A2977 RMK AC1AC1
CLIMAT 8.5/2.5/0.0 SLP113=
METAR CYDB 251200Z AUTO 14006KT 9SM CLR 03/M01 A2976 RMK SLP110=
METAR CYDB 251100Z AUTO 15008KT 9SM CLR 03/M01 A2975 RMK SLP107=

TAF CYDB 251139Z 2512/2524 15008KT P6SM SCT120
RMK FCST BASED ON AUTO OBS. NXT FCST BY 251800Z=
Your time UTC time
Weather data provided by Environment Canada and NAV CANADA